Ana Sayfa
METAR-TAF:

METAR-TAF

Havaalanları :

Wallis, Fransa

Enlem: 13-14S, Boylam: 176-10W, yükseklik: 23 m

METAR: eksik

Saat: 10:18 (22:18 UTC)

Tahmin

Rapor saat 17:00 UTC de 5 saat ve 18 dakika önce yapıldı.
Ayın 22'si saat 18 UTC'den ayın 23'si saat 18 UTC'ye kadar geçerli Tahmin
Rüzgar güney/güneydoğudan 8 kt
Görüş mesafesi 10 km veya daha fazla
1800 ft yükseklikte parçalı çok bulutlu
5500 ft yükseklikte parçalı çok bulutlu
Olasılık 30% :
Geçici
ayın 22'si saat 18 UTC'den ayın 23'si saat 06 UTC'ye kadar
Görüş mesafesi: 3000 m
1200 ft yükseklikte parçalı çok bulutlu
2000 ft yükseklikte parçalı bulutlu, Kümülonimbus.
sağanak yağmurlar

TAF: NLWW 221700Z 2218/2318 16008KT 9999 BKN018 BKN055 PROB30 TEMPO 2218/2306 3000 SHRA BKN012 SCT020CB

4.000'den fazla havaalanı için hava durumu gözlemleri ve tahminleri (METAR ve TAF raporları).

Kullanılabilir istasyonlar harita üzerinde sarı ve kırmızı noktalarla gösterilir.

İstasyonun adını görmek için fareyi noktanın üzerinde gezdirin.

Sonrasında hava gözlem ve tahminlerini görmek için tıklayın.

Haritayı değiştirmek için: yaklaştırmak için siyah artı işaretli yeşil düğmeye ve uzaklaştırmak için de eksi işaretli düğmeye hızla tıklayın; bitişik haritalar için yeşil okları kullanın.


METAR-TAF: